Change the Weather History Date:

Thursday, April 4, 2013

  Actual Average Record
Temperature  
Mean Temperature 39 °F -  
Max Temperature 48 °F 47 °F 58 °F (1974)
Min Temperature 30 °F 29 °F 11 °F (1954)
Degree Days  
Heating Degree Days 26    
Moisture  
Dew Point 17 °F    
Average Humidity 49    
Maximum Humidity 87    
Minimum Humidity 17    
Precipitation  
Precipitation 0.00 in - - ()
Sea Level Pressure  
Sea Level Pressure 30.04 in    
Wind  
Wind Speed 10 mph (West)    
Max Wind Speed 21 mph    
Max Gust Speed 25 mph    
Visibility 10 miles    
Events      
Averages and records for this station are not official NWS values.
T = Trace of Precipitation, MM = Missing Value Source: NWS Daily Summary

Daily Weather History Graph

Daily Weather History Graph

Search for Another Location

Airport or City:

Trip Planner

Search our weather history database for the weather conditions in past years. The results will help you decide how hot, cold, wet, or windy it might be!

Date:

Astronomy

Apr. 04, 2013 Rise Set
Actual Time 6:08 AM EDT 7:04 PM EDT
Civil Twilight 5:39 AM EDT 7:34 PM EDT
Nautical Twilight 5:03 AM EDT 8:09 PM EDT
Astronomical Twilight 4:27 AM EDT 8:46 PM EDT
Moon 2:46 AM EDT 1:06 PM EDT
Length of Visible Light 13h 55m
Length of Day
12h 56m
Waning Crescent, 34% of the Moon is Illuminated
Apr 4
Waning Crescent
Apr 10
New
Apr 18
First Quarter
Apr 25
Full
May 2
Last Quarter

Hourly Weather History & Observations

Time (EDT) Temp. Windchill Dew Point Humidity Pressure Visibility Wind Dir Wind Speed Gust Speed Precip Events Conditions
12:15 AM 32.0 °F 25.6 °F 19.4 °F 60% 29.96 in 10.0 mi WNW 6.9 mph 16.1 mph N/A   Clear
12:35 AM 32.0 °F 25.6 °F 19.4 °F 60% 29.96 in 10.0 mi WNW 6.9 mph 19.6 mph N/A   Clear
1:15 AM 30.2 °F 25.4 °F 19.4 °F 64% 29.99 in 10.0 mi WNW 4.6 mph - N/A   Clear
1:35 AM 30.2 °F 22.6 °F 19.4 °F 64% 29.99 in 10.0 mi West 8.1 mph - N/A   Clear
1:55 AM 30.2 °F 21.3 °F 19.4 °F 64% 29.99 in 10.0 mi WNW 10.4 mph 17.3 mph N/A   Clear
2:15 AM 30.2 °F 21.3 °F 19.4 °F 64% 29.99 in 10.0 mi WNW 10.4 mph 19.6 mph N/A   Clear
2:35 AM 30.2 °F 22.6 °F 19.4 °F 64% 30.00 in 10.0 mi WNW 8.1 mph - N/A   Clear
2:55 AM 30.2 °F 21.3 °F 17.6 °F 60% 30.00 in 10.0 mi NW 10.4 mph - N/A   Clear
3:15 AM 30.2 °F 23.4 °F 17.6 °F 60% 30.00 in 10.0 mi WNW 6.9 mph 17.3 mph N/A   Clear
3:35 AM 30.2 °F 22.6 °F 15.8 °F 55% 30.01 in 10.0 mi NW 8.1 mph - N/A   Clear
3:55 AM 30.2 °F 23.4 °F 15.8 °F 55% 30.01 in 10.0 mi WNW 6.9 mph - N/A   Clear
4:15 AM 30.2 °F 25.4 °F 15.8 °F 55% 30.02 in 10.0 mi WNW 4.6 mph - N/A   Clear
4:35 AM 30.2 °F 25.4 °F 15.8 °F 55% 30.02 in 10.0 mi WNW 4.6 mph 17.3 mph N/A   Clear
4:55 AM 30.2 °F 22.6 °F 15.8 °F 55% 30.03 in 10.0 mi WNW 8.1 mph 17.3 mph N/A   Clear
5:15 AM 30.2 °F 23.4 °F 14.0 °F 51% 30.04 in 10.0 mi WNW 6.9 mph - N/A   Clear
5:35 AM 30.2 °F 23.4 °F 14.0 °F 51% 30.04 in 10.0 mi WNW 6.9 mph 18.4 mph N/A   Clear
5:55 AM 30.2 °F 21.3 °F 12.2 °F 47% 30.05 in 10.0 mi NW 10.4 mph 18.4 mph N/A   Clear
6:15 AM 30.2 °F 25.4 °F 12.2 °F 47% 30.07 in 10.0 mi NW 4.6 mph - N/A   Clear
6:35 AM 30.2 °F 23.4 °F 12.2 °F 47% 30.07 in 10.0 mi WNW 6.9 mph - N/A   Clear
6:55 AM 30.2 °F 23.4 °F 12.2 °F 47% 30.08 in 10.0 mi WNW 6.9 mph - N/A   Clear
7:15 AM 30.2 °F 23.4 °F 12.2 °F 47% 30.10 in 10.0 mi WNW 6.9 mph - N/A   Clear
7:35 AM 32.0 °F 22.5 °F 10.4 °F 41% 30.10 in 10.0 mi NW 12.7 mph 18.4 mph N/A   Clear
7:55 AM 32.0 °F 23.6 °F 8.6 °F 38% 30.10 in 10.0 mi WNW 10.4 mph - N/A   Clear
8:15 AM 33.8 °F 26.4 °F 8.6 °F 35% 30.11 in 10.0 mi WNW 9.2 mph 17.3 mph N/A   Clear
8:35 AM 33.8 °F 26.4 °F 8.6 °F 35% 30.12 in 10.0 mi West 9.2 mph 17.3 mph N/A   Clear
8:55 AM 33.8 °F 26.4 °F 6.8 °F 32% 30.13 in 10.0 mi West 9.2 mph 20.7 mph N/A   Clear
9:15 AM 35.6 °F 27.1 °F 6.8 °F 30% 30.13 in 10.0 mi West 12.7 mph 18.4 mph N/A   Clear
9:35 AM 35.6 °F 27.5 °F 6.8 °F 30% 30.13 in 10.0 mi West 11.5 mph 21.9 mph N/A   Clear
9:55 AM 37.4 °F 31.4 °F 6.8 °F 28% 30.14 in 10.0 mi WNW 8.1 mph 19.6 mph N/A   Clear
10:15 AM 37.4 °F 28.5 °F 8.6 °F 30% 30.13 in 10.0 mi West 15.0 mph 25.3 mph N/A   Clear
10:35 AM 39.2 °F 30.8 °F 8.6 °F 28% 30.14 in 10.0 mi West 15.0 mph 21.9 mph N/A   Clear
10:55 AM 39.2 °F 31.2 °F 6.8 °F 26% 30.14 in 10.0 mi West 13.8 mph 20.7 mph N/A   Clear
11:15 AM 39.2 °F 30.5 °F 5.0 °F 24% 30.14 in 10.0 mi West 16.1 mph 23.0 mph N/A   Clear
11:35 AM 41.0 °F 33.9 °F 6.8 °F 24% 30.12 in 10.0 mi West 12.7 mph 20.7 mph N/A   Clear
11:55 AM 41.0 °F 34.7 °F 6.8 °F 24% 30.12 in 10.0 mi WSW 10.4 mph - N/A   Clear
12:35 PM 42.8 °F 37.5 °F 5.0 °F 21% 30.09 in 10.0 mi NW 9.2 mph 20.7 mph N/A   Clear
12:55 PM 42.8 °F 38.6 °F 5.0 °F 21% 30.08 in 10.0 mi West 6.9 mph 16.1 mph N/A   Clear
1:15 PM 44.6 °F 39.7 °F 3.2 °F 18% 30.06 in 10.0 mi West 9.2 mph 17.3 mph N/A   Clear
1:35 PM 44.6 °F 39.2 °F 6.8 °F 21% 30.06 in 10.0 mi NW 10.4 mph 17.3 mph N/A   Clear
1:55 PM 44.6 °F 39.7 °F 3.2 °F 18% 30.06 in 10.0 mi NW 9.2 mph 19.6 mph N/A   Clear
2:15 PM 46.4 °F 42.9 °F 3.2 °F 17% 30.06 in 10.0 mi West 6.9 mph 16.1 mph N/A   Clear
2:35 PM 46.4 °F 43.5 °F 5.0 °F 18% 30.05 in 10.0 mi West 5.8 mph 19.6 mph N/A   Clear
3:15 PM 48.2 °F - 8.6 °F 20% 30.04 in 10.0 mi SW 13.8 mph 19.6 mph N/A   Clear
3:35 PM 48.2 °F - 10.4 °F 22% 30.03 in 10.0 mi SSW 12.7 mph 17.3 mph N/A   Clear
3:55 PM 44.6 °F 36.6 °F 21.2 °F 39% 30.03 in 10.0 mi South 19.6 mph - N/A   Clear
4:15 PM 42.8 °F 34.0 °F 26.6 °F 53% 30.03 in 10.0 mi SSW 20.7 mph - N/A   Clear
4:35 PM 42.8 °F 34.0 °F 24.8 °F 49% 30.03 in 10.0 mi SSW 20.7 mph 25.3 mph N/A   Clear
4:55 PM 42.8 °F 34.5 °F 24.8 °F 49% 30.02 in 10.0 mi SSW 18.4 mph - N/A   Clear
5:15 PM 42.8 °F 34.8 °F 24.8 °F 49% 30.02 in 10.0 mi SSW 17.3 mph - N/A   Clear
5:35 PM 42.8 °F 35.4 °F 26.6 °F 53% 30.01 in 10.0 mi SSW 15.0 mph - N/A   Clear
5:55 PM 42.8 °F 35.4 °F 26.6 °F 53% 30.01 in 10.0 mi South 15.0 mph 23.0 mph N/A   Clear
6:15 PM 41.0 °F 32.8 °F 28.4 °F 61% 30.01 in 10.0 mi SSW 16.1 mph - N/A   Clear
6:35 PM 39.2 °F 31.6 °F 26.6 °F 61% 30.01 in 10.0 mi SSW 12.7 mph - N/A   Clear
6:55 PM 39.2 °F 30.5 °F 26.6 °F 61% 30.00 in 10.0 mi SSW 16.1 mph 20.7 mph N/A   Clear
7:15 PM 39.2 °F 31.2 °F 26.6 °F 61% 30.01 in 10.0 mi SSW 13.8 mph 23.0 mph N/A   Clear
7:35 PM 39.2 °F 31.6 °F 28.4 °F 65% 30.01 in 10.0 mi SSW 12.7 mph 21.9 mph N/A   Clear
8:15 PM 39.2 °F 30.8 °F 28.4 °F 65% 30.02 in 10.0 mi SSW 15.0 mph - N/A   Clear
8:35 PM 39.2 °F 31.6 °F 30.2 °F 70% 30.02 in 10.0 mi SSW 12.7 mph 20.7 mph N/A   Clear
8:55 PM 39.2 °F 31.6 °F 30.2 °F 70% 30.02 in 10.0 mi SSW 12.7 mph - N/A   Clear
9:15 PM 39.2 °F 31.6 °F 32.0 °F 75% 30.01 in 10.0 mi SSW 12.7 mph - N/A   Clear
9:35 PM 39.2 °F 31.2 °F 33.8 °F 81% 30.01 in 10.0 mi SSW 13.8 mph 19.6 mph N/A   Clear
10:15 PM 39.2 °F 31.6 °F 33.8 °F 81% 29.99 in 10.0 mi SSW 12.7 mph 19.6 mph N/A   Clear
10:35 PM 39.2 °F 32.5 °F 33.8 °F 81% 29.99 in 10.0 mi SSW 10.4 mph 16.1 mph N/A   Clear
10:55 PM 39.2 °F 32.0 °F 35.6 °F 87% 29.98 in 10.0 mi SSW 11.5 mph - N/A   Clear
11:15 PM 39.2 °F 32.5 °F 35.6 °F 87% 29.98 in 10.0 mi SSW 10.4 mph - N/A   Clear
11:35 PM 39.2 °F 33.6 °F 35.6 °F 87% 29.98 in 10.0 mi SSW 8.1 mph - N/A   Clear
11:55 PM 39.2 °F 33.0 °F 35.6 °F 87% 29.96 in 10.0 mi SSW 9.2 mph - N/A   Clear